Time;durP1;ratioP1;P1;durP2;ratioP2;P2;SDS_P1;SDS_P2;PMS_P1;PMS_P2;Temp;Humidity;BMP_temperature;BMP_pressure;BME280_temperature;BME280_humidity;BME280_pressure;Samples;Min_cycle;Max_cycle;Signal;HPM_P1;HPM_P2
2021/01/10 00:00:47;;;;;;;7.37;6.60;;;;;;;5.41;53.61;98503.22;8465723;28;20221;-73
2021/01/10 00:04:50;;;;;;;8.20;7.40;;;;;;;4.98;54.30;98508.13;8466077;28;20205;-73
2021/01/10 00:08:52;;;;;;;7.17;6.47;;;;;;;4.78;54.90;98504.09;8464979;28;20205;-72
2021/01/10 00:12:56;;;;;;;6.93;6.23;;;;;;;4.70;55.05;98503.31;8464638;28;20660;-72
2021/01/10 00:16:58;;;;;;;7.77;7.00;;;;;;;4.58;55.68;98504.31;8465772;28;20221;-74
2021/01/10 00:21:00;;;;;;;7.30;6.63;;;;;;;4.42;55.95;98505.38;8464472;28;20222;-73
2021/01/10 00:25:04;;;;;;;7.30;6.60;;;;;;;4.45;55.89;98503.59;8463888;28;20201;-73
2021/01/10 00:29:07;;;;;;;7.93;7.23;;;;;;;4.33;56.19;98502.91;8463809;28;20668;-74
2021/01/10 00:33:10;;;;;;;7.13;6.43;;;;;;;4.22;56.63;98508.97;8463964;28;20209;-73
2021/01/10 00:37:14;;;;;;;7.87;7.13;;;;;;;4.17;56.53;98517.59;8464954;28;20201;-73
2021/01/10 00:41:16;;;;;;;7.60;6.90;;;;;;;4.11;56.50;98510.78;8463307;28;20277;-73
2021/01/10 00:45:18;;;;;;;7.60;6.90;;;;;;;4.16;56.45;98505.66;8463484;28;20202;-73
2021/01/10 00:49:21;;;;;;;9.03;7.03;;;;;;;4.13;56.07;98495.41;8464725;28;20194;-73
2021/01/10 00:53:23;;;;;;;7.13;6.43;;;;;;;4.06;56.10;98499.75;8463690;28;20206;-73
2021/01/10 00:57:25;;;;;;;8.10;6.87;;;;;;;3.85;56.55;98503.38;8464178;28;20234;-71
2021/01/10 01:01:27;;;;;;;7.73;6.93;;;;;;;4.25;55.38;98508.13;8460391;28;20961;-71
2021/01/10 01:05:29;;;;;;;9.73;6.83;;;;;;;3.88;56.42;98505.88;8462748;28;20758;-71
2021/01/10 01:09:31;;;;;;;7.33;6.63;;;;;;;3.90;55.93;98512.72;8462214;28;20205;-72
2021/01/10 01:13:33;;;;;;;7.30;6.60;;;;;;;3.77;56.43;98517.94;8461811;28;20222;-72
2021/01/10 01:17:36;;;;;;;8.03;7.20;;;;;;;3.69;56.35;98521.44;8462220;28;20205;-72
2021/01/10 01:21:40;;;;;;;7.30;6.60;;;;;;;3.61;56.54;98532.59;8462649;28;20237;-72
2021/01/10 01:25:41;;;;;;;8.50;7.37;;;;;;;3.50;56.70;98522.41;8462297;28;20198;-72
2021/01/10 01:29:43;;;;;;;7.63;6.73;;;;;;;3.59;56.89;98522.34;8463530;28;20206;-72
2021/01/10 01:33:45;;;;;;;8.17;7.37;;;;;;;3.54;57.11;98531.75;8461874;28;20236;-72
2021/01/10 01:37:48;;;;;;;7.63;6.93;;;;;;;3.60;57.09;98528.31;8462047;28;20637;-73
2021/01/10 01:41:49;;;;;;;7.30;6.60;;;;;;;3.47;57.22;98528.41;8461356;28;20228;-73
2021/01/10 01:45:51;;;;;;;7.50;6.80;;;;;;;3.41;56.99;98528.47;8461982;28;20202;-72
2021/01/10 01:49:53;;;;;;;7.83;7.10;;;;;;;3.43;56.80;98524.19;8461515;28;20254;-73
2021/01/10 01:53:58;;;;;;;7.70;6.90;;;;;;;3.43;57.30;98528.47;8460646;28;20206;-73
2021/01/10 01:58:00;;;;;;;8.27;7.23;;;;;;;3.40;57.41;98521.63;8461923;28;20671;-72
2021/01/10 02:02:05;;;;;;;7.70;7.00;;;;;;;3.41;57.19;98527.59;8461493;28;20688;-72
2021/01/10 02:06:09;;;;;;;7.87;7.07;;;;;;;3.38;57.29;98528.47;8460382;28;20262;-71
2021/01/10 02:10:13;;;;;;;8.25;7.47;;;;;;;3.28;56.97;98529.41;8462500;28;20931;-72
2021/01/10 02:14:20;;;;;;;8.60;7.33;;;;;;;3.21;56.96;98532.84;8467297;28;20262;-72
2021/01/10 02:18:22;;;;;;;8.37;7.57;;;;;;;3.28;57.04;98534.53;8468112;28;20536;-71
2021/01/10 02:22:28;;;;;;;10.77;8.17;;;;;;;3.29;57.24;98534.50;8466262;28;20233;-72
2021/01/10 02:26:31;;;;;;;9.20;7.80;;;;;;;3.28;56.90;98531.97;8466414;28;20202;-72
2021/01/10 02:30:33;;;;;;;8.97;7.87;;;;;;;3.26;56.93;98533.69;8466521;28;20202;-72
2021/01/10 02:34:37;;;;;;;10.50;8.77;;;;;;;3.04;56.98;98525.25;8466199;28;20206;-72
2021/01/10 02:38:43;;;;;;;9.67;8.60;;;;;;;3.18;56.96;98530.28;8465506;28;20213;-73
2021/01/10 02:42:49;;;;;;;10.43;9.23;;;;;;;3.16;56.56;98526.91;8467004;28;20220;-72
2021/01/10 02:46:52;;;;;;;11.03;9.67;;;;;;;3.07;56.72;98531.22;8466687;28;20182;-72
2021/01/10 02:50:54;;;;;;;11.03;9.17;;;;;;;3.14;56.79;98532.00;8466674;28;20655;-73
2021/01/10 02:54:55;;;;;;;11.53;9.20;;;;;;;3.03;56.70;98521.84;8465650;28;20236;-73
2021/01/10 02:58:58;;;;;;;9.33;8.40;;;;;;;2.78;56.77;98517.69;8464785;28;20214;-69
2021/01/10 03:03:01;;;;;;;9.20;8.07;;;;;;;2.90;56.80;98525.34;8439065;28;20248;-69
2021/01/10 03:07:04;;;;;;;9.90;7.90;;;;;;;2.89;56.90;98521.06;8447186;28;20281;-69
2021/01/10 03:11:06;;;;;;;9.07;8.07;;;;;;;2.95;57.08;98510.78;8434824;28;20572;-69
2021/01/10 03:15:10;;;;;;;8.60;7.53;;;;;;;2.94;56.56;98516.78;8430673;28;20202;-69
2021/01/10 03:19:15;;;;;;;7.70;6.83;;;;;;;2.77;57.03;98511.75;8430508;28;20202;-69
2021/01/10 03:23:17;;;;;;;7.63;6.93;;;;;;;2.88;56.96;98509.97;8429404;28;20222;-69
2021/01/10 03:27:19;;;;;;;7.70;7.00;;;;;;;2.86;56.44;98509.16;8429966;28;20222;-69
2021/01/10 03:31:21;;;;;;;7.53;6.83;;;;;;;2.90;56.85;98509.97;8429780;28;20198;-69
2021/01/10 03:35:24;;;;;;;8.10;7.30;;;;;;;2.89;56.91;98510.81;8435821;28;20652;-69
2021/01/10 03:39:26;;;;;;;7.43;6.73;;;;;;;2.83;56.65;98513.41;8463500;28;20194;-69
2021/01/10 03:43:27;;;;;;;8.73;7.13;;;;;;;2.76;57.03;98510.06;8463203;28;20222;-69
2021/01/10 03:47:30;;;;;;;8.27;6.63;;;;;;;2.92;56.77;98501.44;8463072;28;20205;-69
2021/01/10 03:51:32;;;;;;;8.27;7.20;;;;;;;2.83;56.78;98498.91;8462743;28;20201;-69
2021/01/10 03:55:34;;;;;;;7.40;6.70;;;;;;;2.96;56.41;98501.44;8462336;28;20234;-69
2021/01/10 03:59:36;;;;;;;7.60;6.90;;;;;;;2.89;56.97;98505.72;8461728;28;20200;-69
2021/01/10 04:03:39;;;;;;;7.77;6.97;;;;;;;2.84;56.63;98502.34;8461665;28;20217;-69
2021/01/10 04:07:40;;;;;;;7.50;6.70;;;;;;;2.82;57.02;98493.78;8461813;28;20190;-69
2021/01/10 04:11:42;;;;;;;7.47;6.77;;;;;;;2.74;56.85;98504.06;8462057;28;20217;-69
2021/01/10 04:15:44;;;;;;;7.43;6.67;;;;;;;2.76;56.74;98498.94;8461537;28;20201;-69
2021/01/10 04:19:46;;;;;;;8.37;7.57;;;;;;;2.71;56.87;98498.97;8461811;28;20220;-69
2021/01/10 04:23:48;;;;;;;8.47;7.67;;;;;;;2.67;56.96;98498.16;8461807;28;20271;-69
2021/01/10 04:27:50;;;;;;;8.07;7.27;;;;;;;2.63;56.69;98493.06;8461045;28;20205;-69
2021/01/10 04:31:55;;;;;;;8.50;7.60;;;;;;;2.67;57.08;98490.47;8460732;28;20204;-69
2021/01/10 04:35:57;;;;;;;7.97;7.17;;;;;;;2.60;56.99;98496.47;8460164;28;20229;-69
2021/01/10 04:39:59;;;;;;;7.80;7.00;;;;;;;2.75;57.28;98503.22;8460436;28;20202;-69
2021/01/10 04:44:01;;;;;;;8.93;7.57;;;;;;;2.68;57.27;98496.44;8460563;28;20225;-69
2021/01/10 04:48:04;;;;;;;8.13;7.33;;;;;;;2.74;57.65;98504.94;8460431;28;20217;-69
2021/01/10 04:52:07;;;;;;;8.37;7.50;;;;;;;2.84;57.28;98502.34;8460621;28;20562;-69
2021/01/10 04:56:09;;;;;;;8.40;7.40;;;;;;;2.74;57.59;98507.50;8460596;28;20241;-69
2021/01/10 05:00:12;;;;;;;9.77;7.97;;;;;;;2.76;57.62;98502.38;8460264;28;20205;-69
2021/01/10 05:04:14;;;;;;;7.83;7.03;;;;;;;2.70;57.63;98505.81;8455982;28;20311;-69
2021/01/10 05:08:17;;;;;;;8.07;7.27;;;;;;;2.77;57.36;98500.66;8451778;28;20193;-69
2021/01/10 05:12:19;;;;;;;8.37;7.57;;;;;;;2.74;57.20;98514.28;8451523;28;20209;-69
2021/01/10 05:16:21;;;;;;;8.40;7.50;;;;;;;2.68;57.41;98511.78;8451889;28;20210;-69
2021/01/10 05:20:27;;;;;;;8.23;7.43;;;;;;;2.76;57.35;98515.16;8455914;28;20211;-69
2021/01/10 05:24:29;;;;;;;8.23;7.43;;;;;;;2.79;57.70;98520.25;8451638;28;20293;-69
2021/01/10 05:28:32;;;;;;;8.50;7.47;;;;;;;2.83;56.98;98518.53;8451936;28;20201;-69
2021/01/10 05:32:34;;;;;;;8.40;7.60;;;;;;;2.75;57.38;98536.47;8451959;28;20202;-69
2021/01/10 05:36:38;;;;;;;8.37;7.57;;;;;;;2.72;57.95;98532.22;8454941;28;20201;-69
2021/01/10 05:40:40;;;;;;;8.27;7.47;;;;;;;2.84;58.04;98527.94;8444326;28;20209;-69
2021/01/10 05:44:49;;;;;;;9.80;8.07;;;;;;;2.88;57.71;98532.16;8460698;28;20222;-69
2021/01/10 05:48:51;;;;;;;8.80;7.90;;;;;;;2.80;57.86;98534.75;8466574;28;20342;-69
2021/01/10 05:52:53;;;;;;;8.47;7.67;;;;;;;2.82;57.72;98535.59;8466819;28;20198;-69
2021/01/10 05:56:57;;;;;;;8.90;8.00;;;;;;;2.83;57.63;98536.44;8491216;27;20237;-69
2021/01/10 06:01:06;;;;;;;9.50;8.50;;;;;;;2.81;57.73;98536.44;8500568;27;20197;-69
2021/01/10 06:05:09;;;;;;;9.10;8.20;;;;;;;2.74;58.12;98543.31;8500159;27;20197;-69
2021/01/10 06:09:11;;;;;;;9.53;8.53;;;;;;;2.76;58.17;98537.31;8500925;27;20289;-69
2021/01/10 06:13:15;;;;;;;8.77;7.83;;;;;;;2.80;57.78;98534.75;8500437;27;20228;-69
2021/01/10 06:17:18;;;;;;;9.33;7.93;;;;;;;2.83;57.90;98533.88;8500433;27;20200;-69
2021/01/10 06:21:22;;;;;;;10.57;8.67;;;;;;;2.85;58.21;98532.16;8499827;27;20312;-69
2021/01/10 06:25:25;;;;;;;10.10;9.10;;;;;;;2.87;58.09;98522.78;8499770;27;20299;-69
2021/01/10 06:29:28;;;;;;;9.87;8.93;;;;;;;2.88;58.27;98530.44;8499759;27;20606;-68
2021/01/10 06:33:31;;;;;;;9.40;8.50;;;;;;;2.90;58.45;98533.84;8500257;27;20237;-69
2021/01/10 06:37:33;;;;;;;9.10;8.20;;;;;;;2.81;59.05;98545.84;8499431;27;20205;-69
2021/01/10 06:41:54;;;;;;;9.33;8.43;;;;;;;2.83;59.04;98549.22;8499320;27;20629;-69
2021/01/10 06:45:57;;;;;;;10.83;8.83;;;;;;;3.01;58.62;98545.72;8499442;27;20208;-69
2021/01/10 06:49:59;;;;;;;9.03;8.20;;;;;;;2.93;58.88;98546.63;8499376;27;20389;-69
2021/01/10 06:54:04;;;;;;;10.80;9.60;;;;;;;3.03;58.76;98546.59;8499156;27;20263;-69
2021/01/10 06:58:10;;;;;;;11.40;9.37;;;;;;;2.93;59.22;98558.56;8497955;27;20347;-69
2021/01/10 07:02:12;;;;;;;9.10;8.20;;;;;;;3.09;59.04;98552.53;8498617;27;20649;-69
2021/01/10 07:06:15;;;;;;;14.47;9.13;;;;;;;3.22;59.91;98550.75;8498963;27;20208;-69
2021/01/10 07:10:26;;;;;;;10.17;9.20;;;;;;;3.23;58.29;98551.59;8498752;27;20215;-69
2021/01/10 07:14:30;;;;;;;11.07;9.97;;;;;;;3.13;58.71;98553.38;8498715;27;20277;-69
2021/01/10 07:18:48;;;;;;;10.60;9.57;;;;;;;3.15;58.78;98545.69;8498396;27;20667;-69
2021/01/10 07:22:50;;;;;;;10.33;9.33;;;;;;;3.09;58.62;98551.69;8498097;27;20289;-69
2021/01/10 07:26:54;;;;;;;11.30;10.10;;;;;;;2.90;59.23;98556.03;8498144;27;20212;-69
2021/01/10 07:31:05;;;;;;;9.27;8.37;;;;;;;3.11;58.69;98555.09;8497981;27;20197;-69
2021/01/10 07:35:08;;;;;;;12.37;11.07;;;;;;;3.02;58.80;98555.13;8498175;27;20197;-69
2021/01/10 07:39:10;;;;;;;10.37;9.37;;;;;;;3.06;59.27;98554.25;8498141;27;20208;-69
2021/01/10 07:43:13;;;;;;;9.77;8.87;;;;;;;3.15;59.27;98558.47;8497749;27;20239;-69
2021/01/10 07:47:15;;;;;;;9.87;8.90;;;;;;;3.09;59.31;98554.25;8497941;27;20633;-69
2021/01/10 07:51:19;;;;;;;25.53;18.77;;;;;;;3.28;59.06;98549.88;8497837;27;20684;-69
2021/01/10 07:55:23;;;;;;;24.07;18.83;;;;;;;3.28;59.39;98563.53;8497901;27;20232;-68
2021/01/10 07:59:24;;;;;;;13.07;11.57;;;;;;;3.26;58.93;98557.56;8497413;27;20203;-69
2021/01/10 08:03:27;;;;;;;12.33;11.03;;;;;;;3.28;58.97;98568.63;8497455;27;20228;-69
2021/01/10 08:07:33;;;;;;;10.80;9.70;;;;;;;3.26;59.03;98561.84;8497624;27;20227;-69
2021/01/10 08:11:35;;;;;;;10.07;8.90;;;;;;;3.30;58.89;98568.63;8497195;27;20220;-69
2021/01/10 08:15:47;;;;;;;10.93;9.80;;;;;;;3.25;58.72;98562.69;8497841;27;20602;-69
2021/01/10 08:19:48;;;;;;;11.17;10.07;;;;;;;3.41;58.69;98560.88;8497367;27;20201;-69
2021/01/10 08:23:54;;;;;;;11.27;10.17;;;;;;;3.49;58.51;98561.69;8497037;27;20225;-69
2021/01/10 08:27:56;;;;;;;13.53;11.90;;;;;;;3.35;58.92;98566.03;8497053;27;20228;-69
2021/01/10 08:31:58;;;;;;;10.87;9.77;;;;;;;3.57;58.67;98561.66;8496357;27;20201;-69
2021/01/10 08:36:11;;;;;;;11.20;10.00;;;;;;;3.47;58.71;98571.09;8496648;27;20212;-69
2021/01/10 08:40:15;;;;;;;11.53;10.33;;;;;;;3.58;58.35;98563.34;8496791;27;20280;-69
2021/01/10 08:44:18;;;;;;;13.10;11.37;;;;;;;3.61;58.46;98556.47;8496438;27;20232;-69
2021/01/10 08:48:20;;;;;;;25.17;20.27;;;;;;;3.61;58.90;98560.75;8496393;27;20220;-69
2021/01/10 08:52:57;;;;;;;19.30;16.90;;;;;;;3.79;58.68;98562.31;8496690;27;20197;-69
2021/01/10 08:57:00;;;;;;;13.23;11.50;;;;;;;3.81;58.76;98560.59;8495755;27;20220;-69
2021/01/10 09:01:02;;;;;;;11.40;10.30;;;;;;;3.86;58.49;98574.25;8495156;27;20280;-69
2021/01/10 09:05:04;;;;;;;12.60;11.30;;;;;;;3.96;57.83;98573.31;8495065;27;20248;-69
2021/01/10 09:09:09;;;;;;;13.70;12.37;;;;;;;4.05;58.20;98574.94;8495437;27;20200;-69
2021/01/10 09:13:15;;;;;;;14.33;12.60;;;;;;;4.03;58.08;98568.97;8495621;27;20220;-69
2021/01/10 09:17:22;;;;;;;12.93;11.70;;;;;;;4.08;58.10;98585.19;8495172;27;20213;-69
2021/01/10 09:21:27;;;;;;;12.63;11.13;;;;;;;4.15;57.68;98583.41;8494759;27;20201;-69
2021/01/10 09:25:32;;;;;;;11.60;10.40;;;;;;;4.08;58.12;98595.44;8495386;28;20268;-69
2021/01/10 09:29:35;;;;;;;13.00;11.70;;;;;;;4.07;57.99;98596.28;8495604;28;20201;-69
2021/01/10 09:33:37;;;;;;;14.07;12.57;;;;;;;4.17;58.00;98587.66;8495991;28;20208;-69
2021/01/10 09:37:39;;;;;;;11.83;10.73;;;;;;;4.06;57.60;98594.59;8496061;28;20204;-69
2021/01/10 09:41:51;;;;;;;11.50;10.30;;;;;;;4.14;57.67;98599.66;8495287;28;20228;-69
2021/01/10 09:45:54;;;;;;;9.10;7.70;;;;;;;4.86;71.37;98596.38;8495321;28;20200;-69
2021/01/10 09:49:56;;;;;;;12.17;11.03;;;;;;;4.38;57.50;98594.31;8495449;28;20193;-68
2021/01/10 09:54:12;;;;;;;12.73;11.43;;;;;;;4.38;57.42;98593.44;8496166;28;20553;-68
2021/01/10 09:58:14;;;;;;;11.40;10.10;;;;;;;4.18;56.68;98594.47;8460431;28;20222;-69
2021/01/10 10:02:18;;;;;;;11.60;10.47;;;;;;;4.54;56.63;98592.44;8443605;28;20271;-69
2021/01/10 10:06:21;;;;;;;11.23;10.13;;;;;;;4.66;56.45;98583.75;8460171;28;20241;-69
2021/01/10 10:10:26;;;;;;;10.57;9.57;;;;;;;4.79;56.54;98577.63;8461155;28;20201;-70
2021/01/10 10:14:29;;;;;;;11.33;10.30;;;;;;;4.99;55.79;98573.97;8460767;28;20630;-69
2021/01/10 10:18:31;;;;;;;12.10;10.80;;;;;;;5.11;55.00;98570.44;8461481;28;20202;-69
2021/01/10 10:22:34;;;;;;;11.40;10.20;;;;;;;5.16;54.84;98572.06;8461636;28;20232;-70
2021/01/10 10:26:41;;;;;;;10.50;9.50;;;;;;;4.86;55.06;98575.84;8462404;28;20209;-70
2021/01/10 10:30:44;;;;;;;11.33;10.33;;;;;;;5.03;54.57;98560.25;8461424;28;20198;-70
2021/01/10 10:34:47;;;;;;;12.23;11.03;;;;;;;5.44;54.20;98574.25;8466874;28;20206;-70
2021/01/10 10:38:49;;;;;;;10.70;9.70;;;;;;;5.08;54.01;98572.16;8467232;28;20224;-70
2021/01/10 10:42:51;;;;;;;12.13;10.50;;;;;;;5.67;54.17;98573.91;8466909;28;20228;-70
2021/01/10 10:46:53;;;;;;;10.70;9.70;;;;;;;6.09;52.70;98563.03;8467541;28;20209;-70
2021/01/10 10:50:56;;;;;;;11.67;10.47;;;;;;;5.89;53.45;98556.47;8465943;28;20217;-70
2021/01/10 10:54:58;;;;;;;12.03;10.83;;;;;;;5.68;52.66;98548.19;8474881;27;20225;-70
2021/01/10 10:59:03;;;;;;;12.00;10.80;;;;;;;5.57;53.70;98549.25;8500683;27;20242;-70
2021/01/10 11:03:04;;;;;;;11.83;10.67;;;;;;;5.46;54.55;98541.69;8500660;27;20219;-70
2021/01/10 11:07:07;;;;;;;11.10;10.00;;;;;;;5.87;53.08;98530.78;8500765;27;20193;-70
2021/01/10 11:11:09;;;;;;;11.33;10.30;;;;;;;5.86;51.88;98534.22;8501785;27;20619;-70
2021/01/10 11:15:12;;;;;;;11.80;10.60;;;;;;;5.75;51.39;98533.56;8500937;27;20644;-70
2021/01/10 11:19:14;;;;;;;11.57;10.47;;;;;;;6.00;51.19;98528.88;8500768;27;20220;-70
2021/01/10 11:23:17;;;;;;;11.73;10.63;;;;;;;6.15;51.88;98520.06;8500533;27;20321;-70
2021/01/10 11:27:19;;;;;;;11.63;10.53;;;;;;;5.93;50.80;98516.97;8500054;27;20193;-70
2021/01/10 11:31:21;;;;;;;11.97;10.87;;;;;;;5.85;52.31;98511.94;8500439;27;20204;-70
2021/01/10 11:35:23;;;;;;;11.63;10.53;;;;;;;5.93;51.79;98516.97;8499144;27;20220;-70
2021/01/10 11:39:26;;;;;;;12.30;11.10;;;;;;;5.92;51.05;98516.97;8499523;27;20201;-70
2021/01/10 11:43:27;;;;;;;12.13;10.93;;;;;;;5.62;51.85;98507.19;8500191;27;20633;-70
2021/01/10 11:47:30;;;;;;;12.23;11.00;;;;;;;5.42;51.60;98504.91;8498670;27;20324;-70
2021/01/10 11:51:32;;;;;;;12.20;11.07;;;;;;;5.86;50.98;98500.81;8498339;27;20212;-70
2021/01/10 11:55:35;;;;;;;11.70;10.60;;;;;;;5.92;51.50;98499.00;8499542;27;20305;-70
2021/01/10 11:59:37;;;;;;;14.97;11.80;;;;;;;5.99;59.75;98498.88;8497613;27;20197;-70
2021/01/10 12:03:38;;;;;;;10.97;9.17;;;;;;;9.37;63.57;98492.50;8497944;27;20231;-70
2021/01/10 12:07:40;;;;;;;10.03;9.13;;;;;;;10.04;49.33;98486.03;8498146;27;20215;-72
2021/01/10 12:11:43;;;;;;;11.10;10.10;;;;;;;8.44;46.25;98483.19;8498103;27;20224;-70
2021/01/10 12:15:46;;;;;;;12.90;11.60;;;;;;;7.38;46.76;98484.06;8498837;27;20653;-70
2021/01/10 12:19:47;;;;;;;11.57;10.37;;;;;;;6.64;49.29;98479.66;8498555;27;20659;-70
2021/01/10 12:23:49;;;;;;;13.67;12.37;;;;;;;5.97;49.55;98479.22;8497245;27;20290;-70
2021/01/10 12:27:52;;;;;;;21.27;11.77;;;;;;;6.03;50.86;98474.81;8497253;27;20216;-70
2021/01/10 12:31:57;;;;;;;13.10;11.63;;;;;;;6.02;51.35;98472.28;8497391;27;20208;-70
2021/01/10 12:35:59;;;;;;;13.50;12.10;;;;;;;6.11;50.87;98471.25;8498276;27;20200;-70
2021/01/10 12:40:02;;;;;;;12.57;11.37;;;;;;;6.15;51.28;98476.34;8497301;27;20228;-70
2021/01/10 12:44:05;;;;;;;12.17;10.97;;;;;;;6.07;51.48;98466.19;8496874;27;20212;-70
2021/01/10 12:48:07;;;;;;;12.70;11.50;;;;;;;6.23;50.81;98468.47;8498872;27;20197;-70
2021/01/10 12:52:09;;;;;;;12.80;11.50;;;;;;;6.39;50.47;98458.72;8490249;27;20201;-70
2021/01/10 12:56:15;;;;;;;12.17;10.93;;;;;;;6.25;50.40;98466.72;8496546;27;20224;-70
2021/01/10 13:00:18;;;;;;;13.97;11.33;;;;;;;6.25;50.97;98459.00;8497323;27;20196;-70
2021/01/10 13:04:19;;;;;;;14.13;12.63;;;;;;;6.00;51.12;98467.19;8497236;27;20260;-70
2021/01/10 13:08:21;;;;;;;14.40;12.93;;;;;;;6.09;50.80;98468.72;8497225;27;20212;-70
2021/01/10 13:12:23;;;;;;;13.27;11.87;;;;;;;6.02;51.63;98464.59;8496939;27;20228;-70
2021/01/10 13:16:25;;;;;;;11.60;10.40;;;;;;;6.17;50.43;98469.44;8496742;27;20621;-70
2021/01/10 13:20:28;;;;;;;12.33;10.30;;;;;;;6.41;49.64;98456.97;8496849;27;20558;-70
2021/01/10 13:24:30;;;;;;;11.20;10.10;;;;;;;6.51;49.07;98453.38;8496958;28;20232;-70
2021/01/10 13:28:32;;;;;;;9.40;8.50;;;;;;;6.73;48.60;98461.47;8496391;28;20623;-70
2021/01/10 13:32:34;;;;;;;10.07;9.00;;;;;;;6.83;47.91;98456.97;8495894;28;20197;-70
2021/01/10 13:36:36;;;;;;;10.37;9.27;;;;;;;6.52;48.17;98454.19;8496254;28;20204;-71
2021/01/10 13:40:38;;;;;;;6.00;5.50;;;;;;;5.63;46.34;98460.03;8496322;28;20201;-70
2021/01/10 13:44:39;;;;;;;8.00;7.20;;;;;;;5.41;47.84;98451.84;8495721;28;20225;-70
2021/01/10 13:48:43;;;;;;;9.67;7.30;;;;;;;5.00;47.88;98447.34;8495481;28;20533;-70
2021/01/10 13:52:45;;;;;;;10.73;9.03;;;;;;;5.09;47.85;98450.63;8495533;28;20242;-70
2021/01/10 13:56:47;;;;;;;8.50;7.70;;;;;;;5.13;48.37;98455.72;8496246;28;20228;-70
2021/01/10 14:00:50;;;;;;;10.33;9.23;;;;;;;5.46;47.74;98454.34;8495672;28;20208;-70
2021/01/10 14:04:53;;;;;;;8.07;7.20;;;;;;;5.62;47.49;98458.38;8495681;28;20217;-70
2021/01/10 14:08:56;;;;;;;8.23;7.43;;;;;;;5.94;47.06;98456.97;8501885;27;20201;-70
2021/01/10 14:12:58;;;;;;;8.53;7.63;;;;;;;6.37;46.51;98450.19;8502332;27;20233;-70
2021/01/10 14:17:00;;;;;;;10.07;8.60;;;;;;;6.70;46.33;98455.53;8502136;27;20201;-70
2021/01/10 14:21:03;;;;;;;9.03;8.13;;;;;;;6.62;46.50;98453.97;8501607;27;20268;-70
2021/01/10 14:25:05;;;;;;;9.77;8.87;;;;;;;6.48;46.37;98452.56;8501920;27;20239;-70
2021/01/10 14:29:09;;;;;;;11.60;9.63;;;;;;;6.75;46.32;98451.16;8502039;27;20204;-70
2021/01/10 14:33:11;;;;;;;14.67;12.70;;;;;;;6.71;46.11;98454.66;8493978;27;20636;-70
2021/01/10 14:37:14;;;;;;;11.23;10.13;;;;;;;6.61;46.00;98461.75;8501831;27;20208;-70
2021/01/10 14:41:27;;;;;;;11.63;9.33;;;;;;;6.56;46.22;98466.13;8501511;27;20193;-70
2021/01/10 14:45:29;;;;;;;10.73;9.73;;;;;;;6.74;46.32;98462.31;8501133;27;20232;-70
2021/01/10 14:49:35;;;;;;;14.30;12.23;;;;;;;6.54;46.58;98465.31;8501105;27;20617;-71
2021/01/10 14:53:37;;;;;;;13.40;12.10;;;;;;;6.55;47.55;98474.69;8500942;27;20571;-70
2021/01/10 14:57:39;;;;;;;14.47;13.03;;;;;;;6.34;48.00;98471.69;8500878;27;20225;-70
2021/01/10 15:01:41;;;;;;;13.67;12.23;;;;;;;6.20;48.63;98479.66;8501499;27;20237;-70
2021/01/10 15:05:43;;;;;;;12.93;11.63;;;;;;;5.82;48.77;98478.56;8500548;27;20229;-70
2021/01/10 15:09:46;;;;;;;12.63;11.13;;;;;;;5.77;49.68;98480.41;8500844;27;20204;-70
2021/01/10 15:13:47;;;;;;;11.67;10.57;;;;;;;5.62;50.31;98481.50;8500151;27;20237;-70
2021/01/10 15:17:49;;;;;;;11.60;10.40;;;;;;;5.55;50.47;98487.59;8498972;27;20197;-70
2021/01/10 15:21:51;;;;;;;12.53;11.33;;;;;;;5.42;50.39;98473.25;8500164;27;20201;-70
2021/01/10 15:25:54;;;;;;;11.90;10.70;;;;;;;5.39;50.49;98478.44;8500052;27;20632;-70
2021/01/10 15:29:55;;;;;;;13.00;11.70;;;;;;;5.35;51.12;98484.47;8499943;27;20205;-70
2021/01/10 15:33:57;;;;;;;13.47;11.70;;;;;;;5.20;51.12;98494.13;8500292;27;20201;-70
2021/01/10 15:37:59;;;;;;;16.50;11.10;;;;;;;5.13;51.51;98497.63;8500550;27;20212;-70
2021/01/10 15:42:02;;;;;;;13.50;10.80;;;;;;;5.13;51.83;98495.06;8500341;27;20296;-70
2021/01/10 15:46:06;;;;;;;12.20;11.00;;;;;;;5.16;51.91;98494.16;8501255;27;20220;-72
2021/01/10 15:50:09;;;;;;;13.43;12.03;;;;;;;4.94;52.13;98504.75;8501101;27;20205;-69
2021/01/10 15:54:11;;;;;;;13.00;11.60;;;;;;;4.85;53.04;98498.00;8501116;27;20294;-69
2021/01/10 15:58:13;;;;;;;13.13;11.83;;;;;;;4.83;53.02;98501.47;8501364;27;20185;-69
2021/01/10 16:02:17;;;;;;;11.77;10.63;;;;;;;4.73;53.14;98502.44;8500264;27;20205;-69
2021/01/10 16:06:19;;;;;;;11.93;10.73;;;;;;;4.73;52.92;98503.28;8501083;27;20204;-69
2021/01/10 16:10:21;;;;;;;13.63;11.87;;;;;;;4.67;53.91;98506.78;8500790;27;20648;-69
2021/01/10 16:14:44;;;;;;;235.27;88.83;;;;;;;5.19;53.99;98507.81;8500605;27;20220;-69
2021/01/10 16:18:46;;;;;;;104.80;45.87;;;;;;;5.35;53.84;98505.03;8500284;27;20201;-69
2021/01/10 16:22:48;;;;;;;139.33;60.07;;;;;;;5.45;57.25;98507.44;8500128;27;20562;-68
2021/01/10 16:26:49;;;;;;;528.93;183.03;;;;;;;5.27;52.73;98503.44;8499789;27;20287;-68
2021/01/10 16:30:52;;;;;;;20.63;18.40;;;;;;;4.88;52.52;98504.81;8499745;27;20205;-68
2021/01/10 16:34:54;;;;;;;17.40;15.57;;;;;;;4.76;53.02;98498.13;8499126;27;20230;-68
2021/01/10 16:38:56;;;;;;;26.00;21.17;;;;;;;4.60;53.08;98507.72;8499622;27;20303;-69
2021/01/10 16:43:10;;;;;;;36.13;30.80;;;;;;;4.47;53.57;98508.72;8500372;27;20232;-69
2021/01/10 16:47:13;;;;;;;28.80;25.63;;;;;;;4.43;54.00;98505.34;8501762;27;20220;-69
2021/01/10 16:51:15;;;;;;;24.47;21.00;;;;;;;4.39;54.17;98508.81;8501247;27;20246;-69
2021/01/10 16:55:17;;;;;;;22.70;19.60;;;;;;;4.41;54.08;98507.06;8499041;27;20269;-68
2021/01/10 16:59:20;;;;;;;30.70;24.13;;;;;;;4.24;54.19;98496.16;8499085;27;20212;-69
2021/01/10 17:03:23;;;;;;;26.07;23.20;;;;;;;4.22;54.80;98495.31;8500017;27;20228;-68
2021/01/10 17:07:25;;;;;;;25.00;21.87;;;;;;;4.18;54.65;98497.06;8500609;27;20244;-69
2021/01/10 17:11:35;;;;;;;185.77;66.90;;;;;;;4.49;66.22;98497.59;8499144;27;20220;-69
2021/01/10 17:15:38;;;;;;;183.20;67.50;;;;;;;7.85;64.84;98490.72;8500256;27;20586;-73
2021/01/10 17:19:40;;;;;;;47.57;23.17;;;;;;;8.73;50.10;98484.94;8498376;27;20200;-74
2021/01/10 17:23:42;;;;;;;23.50;18.53;;;;;;;6.46;48.27;98492.03;8502146;28;20229;-77
2021/01/10 17:27:44;;;;;;;26.83;23.00;;;;;;;5.59;50.53;98493.53;8506882;28;20215;-77
2021/01/10 17:31:46;;;;;;;38.10;31.67;;;;;;;5.08;52.35;98492.59;8504262;28;20197;-77
2021/01/10 17:35:49;;;;;;;30.00;25.20;;;;;;;4.82;52.95;98497.22;8500628;28;20208;-75
2021/01/10 17:39:52;;;;;;;45.07;37.17;;;;;;;4.50;53.41;98501.84;8501609;27;20201;-74
2021/01/10 17:43:54;;;;;;;40.33;34.87;;;;;;;4.37;54.20;98502.84;8507660;27;20228;-75
2021/01/10 17:47:55;;;;;;;32.93;29.43;;;;;;;4.27;54.27;98506.38;8508553;27;20197;-74
2021/01/10 17:51:58;;;;;;;27.80;24.57;;;;;;;4.29;54.26;98509.78;8519581;27;20201;-74
2021/01/10 17:56:00;;;;;;;26.40;23.70;;;;;;;4.22;54.53;98505.56;8509234;27;20224;-75
2021/01/10 18:05:17;;;;;;;28.33;25.33;;;;;;;4.02;55.25;98516.88;8503921;27;20222;-73
2021/01/10 18:09:20;;;;;;;27.00;24.10;;;;;;;4.00;54.92;98516.03;8504199;27;20193;-73
2021/01/10 18:13:22;;;;;;;28.97;24.23;;;;;;;4.00;54.84;98513.47;8504066;27;20240;-73
2021/01/10 18:17:23;;;;;;;22.80;19.57;;;;;;;3.91;55.21;98521.25;8504018;27;20201;-73
2021/01/10 18:21:26;;;;;;;22.53;20.13;;;;;;;3.95;56.26;98517.78;8504594;27;20253;-72
2021/01/10 18:25:29;;;;;;;23.33;19.20;;;;;;;3.95;55.35;98522.06;8504638;27;20220;-73
2021/01/10 18:29:31;;;;;;;22.73;19.40;;;;;;;3.87;55.57;98522.97;8503250;27;20572;-72
2021/01/10 18:33:33;;;;;;;22.75;20.35;;;;;;;4.31;54.36;98528.56;8502375;27;20419;-72
2021/01/10 18:37:35;;;;;;;24.30;21.70;;;;;;;4.27;54.40;98522.63;8502586;27;20411;-72
2021/01/10 18:41:39;;;;;;;20.63;18.43;;;;;;;4.06;55.15;98533.09;8502732;27;20201;-73
2021/01/10 18:45:41;;;;;;;20.83;18.57;;;;;;;4.03;55.33;98526.25;8503149;27;20221;-73
2021/01/10 18:49:43;;;;;;;25.53;21.23;;;;;;;3.99;55.81;98526.31;8502731;27;20610;-74
2021/01/10 18:53:52;;;;;;;25.80;23.03;;;;;;;3.90;55.76;98522.97;8501578;27;20189;-73
2021/01/10 18:57:55;;;;;;;26.77;21.90;;;;;;;3.85;55.98;98519.59;8505272;27;20267;-75
2021/01/10 19:01:57;;;;;;;25.47;22.77;;;;;;;3.84;56.14;98525.56;8504918;27;20553;-76
2021/01/10 19:05:59;;;;;;;22.63;20.23;;;;;;;3.80;56.35;98523.03;8506921;27;20353;-75